Portada
METAR-TAF:

METAR-TAF

Aeroports :

Parnaíba, Piauí, Brasil

latitud: 02-55S, longitud: 041-45W, altitud: 5 m

Observació

L'informe es va fer fa 10 minuts, a les 17:00 UTC
Vent 17 kt del Est
Temperatura 32°C
Humitat 59%
Pressió 1008 hPa
Visibilitat 10 km o més
sense núvols per sota de 1500 mi sense presència de cumulonimbus.

METAR: SBPB 121700Z 08017KT CAVOK 32/23 Q1008

Hora: 14:10 (17:10 UTC)

Pronòstic

L'informe es va fer fa 7 hores i 10 minuts, a les 10:00 UTC
Pronòstic vàlid del 12 a les 12 UTC al 12 a les 24 UTC
Vent 15 kt del Est
Visibilitat 10 km o més
Núvols disperses a una alçada de 2000 ft
Evolucionant progressivament
l' 12 a les 14 UTC al 12 a les 16 UTC
Vent 15 kt del Nord-Est
Evolucionant progressivament
l' 12 a les 19 UTC al 12 a les 21 UTC
Visibilitat 10 km o més
sense núvols per sota de 1500 mi sense presència de cumulonimbus.

TAF: SBPB 121000Z 1212/1224 08015KT 9999 SCT020 TN30/1212Z TX32/1215Z BECMG 1214/1216 05015KT BECMG 1219/1221 CAVOK RMK PEH

Observacions i pronòstics meteorològics de més de 4000 aeroports (METAR i TAF).

Les estacions disponibles són els punts grocs i vermells al mapa.

Posi el ratolí al punt desitjat per veure el nom de l'estació.

Feu clic per veure les observacions i els pronòstics meteorològics.

Per canviar el mapa: feu clic els botons verds amb una creu de color negre per apropar; al botó verd amb un guió per allunyar la imatge; o en les fletxes verdes per a mapes adjacents.


METAR-TAF: